createdAt,value
2023-01-09T00:01:47.171Z,64.15
2023-01-09T00:04:13.568Z,64.03
2023-01-09T00:06:39.987Z,63.11
2023-01-09T00:09:06.342Z,62.96
2023-01-09T00:11:32.733Z,62.59
2023-01-09T00:13:59.093Z,62.21
2023-01-09T00:16:25.475Z,61.10
2023-01-09T00:18:51.875Z,60.84
2023-01-09T00:21:18.211Z,60.68
2023-01-09T00:23:44.602Z,60.99
2023-01-09T00:26:10.998Z,60.55
2023-01-09T00:28:37.350Z,60.63
2023-01-09T00:31:03.714Z,60.74
2023-01-09T00:33:30.081Z,61.74
2023-01-09T00:35:56.457Z,61.86
2023-01-09T00:38:22.853Z,62.35
2023-01-09T00:40:49.208Z,62.49
2023-01-09T00:43:15.601Z,61.67
2023-01-09T00:45:42.005Z,63.36
2023-01-09T00:48:08.380Z,65.12
2023-01-09T00:50:34.730Z,66.59
2023-01-09T00:53:01.083Z,67.73
2023-01-09T00:55:27.478Z,73.01
2023-01-09T00:57:53.862Z,72.89
2023-01-09T01:00:20.254Z,70.26
2023-01-09T01:02:46.653Z,69.88
2023-01-09T01:05:13.034Z,76.52
2023-01-09T01:07:39.428Z,72.43
2023-01-09T01:10:05.791Z,75.42
2023-01-09T01:12:32.167Z,72.79
2023-01-09T01:14:58.529Z,74.89
2023-01-09T01:17:24.926Z,76.82
2023-01-09T01:19:51.258Z,76.67
2023-01-09T01:22:17.596Z,70.88
2023-01-09T01:24:43.983Z,74.79
2023-01-09T01:27:10.392Z,75.47
2023-01-09T01:29:36.733Z,74.18
2023-01-09T01:32:03.100Z,74.04
2023-01-09T01:34:29.474Z,73.86
2023-01-09T01:36:55.842Z,71.79
2023-01-09T01:39:22.190Z,72.00
2023-01-09T01:41:48.552Z,73.18
2023-01-09T01:44:14.945Z,71.84
2023-01-09T01:46:41.333Z,73.46
2023-01-09T01:49:07.735Z,72.29
2023-01-09T01:51:34.089Z,72.70
2023-01-09T01:54:00.471Z,72.19
2023-01-09T01:56:26.856Z,67.18
2023-01-09T01:58:53.254Z,70.93
2023-01-09T02:01:19.679Z,68.55
2023-01-09T02:03:46.093Z,70.16
2023-01-09T02:06:12.457Z,68.45
2023-01-09T02:08:38.808Z,69.66
2023-01-09T02:11:05.135Z,66.79
2023-01-09T02:13:31.472Z,67.27
2023-01-09T02:15:57.863Z,64.98
2023-01-09T02:18:24.291Z,67.23
2023-01-09T02:20:50.659Z,63.06
2023-01-09T02:23:17.002Z,64.02
2023-01-09T02:25:43.337Z,65.60
2023-01-09T02:28:09.688Z,62.61
2023-01-09T02:30:36.022Z,62.64
2023-01-09T02:33:02.399Z,63.41
2023-01-09T02:35:28.736Z,64.40
2023-01-09T02:37:55.067Z,64.43
2023-01-09T02:40:21.405Z,63.46
2023-01-09T02:42:47.793Z,62.16
2023-01-09T02:45:14.187Z,64.84
2023-01-09T02:47:40.577Z,64.19
2023-01-09T02:50:06.930Z,62.60
2023-01-09T02:52:33.262Z,62.79
2023-01-09T02:54:59.613Z,61.50
2023-01-09T02:57:25.999Z,62.46
2023-01-09T02:59:54.008Z,61.80
2023-01-09T03:02:20.564Z,59.83
2023-01-09T03:04:46.947Z,61.12
2023-01-09T03:07:13.338Z,61.21
2023-01-09T03:09:39.727Z,59.19
2023-01-09T03:12:06.103Z,61.30
2023-01-09T03:14:32.454Z,60.26
2023-01-09T03:16:58.830Z,59.79
2023-01-09T03:19:25.228Z,60.49
2023-01-09T03:21:51.659Z,60.44
2023-01-09T03:24:18.080Z,58.91
2023-01-09T03:26:44.469Z,59.40
2023-01-09T03:29:10.829Z,60.19
2023-01-09T03:31:37.292Z,60.15
2023-01-09T03:34:03.737Z,59.26
2023-01-09T03:36:30.068Z,66.14
2023-01-09T03:38:56.402Z,66.17
2023-01-09T03:41:22.738Z,64.50
2023-01-09T03:43:49.153Z,65.63
2023-01-09T03:46:15.560Z,65.55
2023-01-09T03:48:41.949Z,64.81
2023-01-09T03:51:08.365Z,64.81
2023-01-09T03:53:34.766Z,64.93
2023-01-09T03:56:01.155Z,62.88
2023-01-09T03:58:27.511Z,64.01
2023-01-09T04:00:54.010Z,63.63
2023-01-09T04:03:20.443Z,61.39
2023-01-09T04:05:46.791Z,62.03
2023-01-09T04:08:13.180Z,61.84
2023-01-09T04:10:39.570Z,64.15
2023-01-09T04:13:05.916Z,62.10
2023-01-09T04:15:32.285Z,62.87
2023-01-09T04:17:58.612Z,58.84
2023-01-09T04:20:24.997Z,61.39
2023-01-09T04:22:51.349Z,57.28
2023-01-09T04:25:17.731Z,56.96
2023-01-09T04:27:44.069Z,53.53
2023-01-09T04:30:10.459Z,57.23
2023-01-09T04:32:36.811Z,58.47
2023-01-09T04:35:03.140Z,54.16
2023-01-09T04:37:30.902Z,55.42
2023-01-09T04:39:57.260Z,53.76
2023-01-09T04:42:23.594Z,54.93
2023-01-09T04:44:49.989Z,54.39
2023-01-09T04:47:16.344Z,53.37
2023-01-09T04:49:42.703Z,52.46
2023-01-09T04:52:09.072Z,53.18
2023-01-09T04:54:35.417Z,52.92
2023-01-09T04:57:01.753Z,51.81
2023-01-09T04:59:28.129Z,51.30
2023-01-09T05:01:54.632Z,51.75
2023-01-09T05:04:21.165Z,51.63
2023-01-09T05:06:47.515Z,53.69
2023-01-09T05:09:13.885Z,53.90
2023-01-09T05:11:40.269Z,54.42
2023-01-09T05:14:06.617Z,56.12
2023-01-09T05:16:33.005Z,53.94
2023-01-09T05:18:59.354Z,53.70
2023-01-09T05:21:25.733Z,53.04
2023-01-09T05:23:52.131Z,54.57
2023-01-09T05:26:18.487Z,53.88
2023-01-09T05:28:44.815Z,53.58
2023-01-09T05:31:11.200Z,51.90
2023-01-09T05:33:37.599Z,52.10
2023-01-09T05:36:03.976Z,52.85
2023-01-09T05:38:30.387Z,52.63
2023-01-09T05:40:56.720Z,50.35
2023-01-09T05:43:23.093Z,52.95
2023-01-09T05:45:49.512Z,50.93
2023-01-09T05:48:15.957Z,54.10
2023-01-09T05:50:42.333Z,53.70
2023-01-09T05:53:08.703Z,52.98
2023-01-09T05:55:35.092Z,52.03
2023-01-09T05:58:01.487Z,53.89
2023-01-09T06:00:27.858Z,53.18
2023-01-09T06:02:54.283Z,52.84
2023-01-09T06:05:20.698Z,52.76
2023-01-09T06:07:47.065Z,52.29
2023-01-09T06:10:13.420Z,52.25
2023-01-09T06:12:39.794Z,51.74
2023-01-09T06:15:08.772Z,51.70
2023-01-09T06:17:35.344Z,51.59
2023-01-09T06:20:01.735Z,51.16
2023-01-09T06:22:28.144Z,51.91
2023-01-09T06:24:54.546Z,51.72
2023-01-09T06:27:20.891Z,51.09
2023-01-09T06:29:47.270Z,51.34
2023-01-09T06:32:13.631Z,51.20
2023-01-09T06:34:39.952Z,51.04
2023-01-09T06:37:06.362Z,52.34
2023-01-09T06:39:32.771Z,52.19
2023-01-09T06:41:59.109Z,51.11
2023-01-09T06:44:25.480Z,51.27
2023-01-09T06:46:51.885Z,51.33
2023-01-09T06:49:18.236Z,50.53
2023-01-09T06:51:44.594Z,51.55
2023-01-09T06:54:10.988Z,50.70
2023-01-09T06:56:37.379Z,51.63
2023-01-09T06:59:03.790Z,50.86
2023-01-09T07:01:30.226Z,51.14
2023-01-09T07:03:56.701Z,51.18
2023-01-09T07:06:23.055Z,51.21
2023-01-09T07:08:49.407Z,51.25
2023-01-09T07:11:15.815Z,51.64
2023-01-09T07:13:42.210Z,50.58
2023-01-09T07:16:08.636Z,50.80
2023-01-09T07:18:35.035Z,50.95
2023-01-09T07:21:01.413Z,50.38
2023-01-09T07:23:27.859Z,51.10
2023-01-09T07:25:54.243Z,51.61
2023-01-09T07:28:20.633Z,51.49
2023-01-09T07:30:47.033Z,50.38
2023-01-09T07:33:13.429Z,49.24
2023-01-09T07:35:39.775Z,50.96
2023-01-09T07:38:06.151Z,50.94
2023-01-09T07:40:32.553Z,50.30
2023-01-09T07:42:58.904Z,49.77
2023-01-09T07:45:25.302Z,50.27
2023-01-09T07:47:51.682Z,49.64
2023-01-09T07:50:18.077Z,49.39
2023-01-09T07:52:44.420Z,50.22
2023-01-09T07:55:10.806Z,49.14
2023-01-09T07:57:37.157Z,49.16
2023-01-09T08:00:03.536Z,49.94
2023-01-09T08:02:29.959Z,49.28
2023-01-09T08:04:56.380Z,49.61
2023-01-09T08:07:22.726Z,49.76
2023-01-09T08:09:49.085Z,50.23
2023-01-09T08:12:15.498Z,50.21
2023-01-09T08:14:41.881Z,49.90
2023-01-09T08:17:08.225Z,50.01
2023-01-09T08:19:34.602Z,50.37
2023-01-09T08:22:00.990Z,50.82
2023-01-09T08:24:27.363Z,50.50
2023-01-09T08:26:53.755Z,50.66
2023-01-09T08:29:20.105Z,50.47
2023-01-09T08:31:46.617Z,50.37
2023-01-09T08:34:12.981Z,50.94
2023-01-09T08:36:39.370Z,51.91
2023-01-09T08:39:05.757Z,51.71
2023-01-09T08:41:32.147Z,51.76
2023-01-09T08:43:58.529Z,50.60
2023-01-09T08:46:24.931Z,50.40
2023-01-09T08:48:51.295Z,49.99
2023-01-09T08:51:17.642Z,49.75
2023-01-09T08:53:43.993Z,49.07
2023-01-09T08:56:10.382Z,50.44
2023-01-09T08:58:36.808Z,50.59
2023-01-09T09:01:03.205Z,50.13
2023-01-09T09:03:29.544Z,50.51
2023-01-09T09:05:55.887Z,49.69
2023-01-09T09:08:22.214Z,50.73
2023-01-09T09:10:48.612Z,51.38
2023-01-09T09:13:14.977Z,51.59
2023-01-09T09:15:41.412Z,50.70
2023-01-09T09:18:07.757Z,50.92
2023-01-09T09:20:34.109Z,50.70
2023-01-09T09:23:00.444Z,51.69
2023-01-09T09:25:26.861Z,52.36
2023-01-09T09:27:53.214Z,52.09
2023-01-09T09:30:19.584Z,52.22
2023-01-09T09:32:45.977Z,52.55
2023-01-09T09:35:12.333Z,51.14
2023-01-09T09:37:38.718Z,51.06
2023-01-09T09:40:17.593Z,52.89
2023-01-09T09:42:44.943Z,52.67
2023-01-09T09:45:11.342Z,54.99
2023-01-09T09:47:37.732Z,56.53
2023-01-09T09:50:04.099Z,59.20
2023-01-09T09:52:30.495Z,58.78
2023-01-09T09:54:56.863Z,57.95
2023-01-09T09:57:23.248Z,58.39
2023-01-09T09:59:49.601Z,60.04
2023-01-09T10:02:16.032Z,60.54
2023-01-09T10:04:42.406Z,61.40
2023-01-09T10:07:08.797Z,61.49
2023-01-09T10:09:35.162Z,61.34
2023-01-09T10:12:01.506Z,62.28
2023-01-09T10:14:27.848Z,61.61
2023-01-09T10:16:54.192Z,60.81
2023-01-09T10:19:20.569Z,60.33
2023-01-09T10:21:46.973Z,59.75
2023-01-09T10:24:13.376Z,60.93
2023-01-09T10:26:39.810Z,61.27
2023-01-09T10:29:06.187Z,60.09
2023-01-09T10:31:32.612Z,61.16
2023-01-09T10:33:59.054Z,60.38
2023-01-09T10:36:25.473Z,59.12
2023-01-09T10:38:51.826Z,59.73
2023-01-09T10:41:18.203Z,59.92
2023-01-09T10:43:44.577Z,59.26
2023-01-09T10:46:11.018Z,58.93
2023-01-09T10:48:37.409Z,58.73
2023-01-09T10:51:03.793Z,58.76
2023-01-09T10:53:30.155Z,58.74
2023-01-09T10:55:56.542Z,59.53
2023-01-09T10:58:22.942Z,59.79
2023-01-09T11:00:49.293Z,57.99
2023-01-09T11:03:15.756Z,57.99
2023-01-09T11:05:42.153Z,57.72
2023-01-09T11:08:08.508Z,56.90
2023-01-09T11:10:34.859Z,56.81
2023-01-09T11:13:01.243Z,56.61
2023-01-09T11:15:27.619Z,56.91
2023-01-09T11:17:54.055Z,58.30
2023-01-09T11:20:20.451Z,58.39
2023-01-09T11:22:46.799Z,58.54
2023-01-09T11:25:13.192Z,57.99
2023-01-09T11:27:39.536Z,58.21
2023-01-09T11:30:06.056Z,59.20
2023-01-09T11:32:32.437Z,58.96
2023-01-09T11:34:58.789Z,57.49
2023-01-09T11:37:25.174Z,57.66
2023-01-09T11:39:51.538Z,56.97
2023-01-09T11:42:17.879Z,57.02
2023-01-09T11:44:44.216Z,56.75
2023-01-09T11:47:10.590Z,57.10
2023-01-09T11:49:36.934Z,57.14
2023-01-09T11:52:03.329Z,56.41
2023-01-09T11:54:29.739Z,57.13
2023-01-09T11:56:56.121Z,56.13
2023-01-09T11:59:22.539Z,56.47
2023-01-09T12:01:48.917Z,56.14
2023-01-09T12:04:15.260Z,57.09
2023-01-09T12:06:41.642Z,56.41
2023-01-09T12:09:08.246Z,56.07
2023-01-09T12:11:34.667Z,56.40
2023-01-09T12:14:01.134Z,57.04
2023-01-09T12:16:27.586Z,57.89
2023-01-09T12:18:54.007Z,57.85
2023-01-09T12:21:20.367Z,59.33
2023-01-09T12:23:46.760Z,61.21
2023-01-09T12:26:13.102Z,62.68
2023-01-09T12:28:39.490Z,65.00
2023-01-09T12:31:05.843Z,64.72
2023-01-09T12:33:32.193Z,63.12
2023-01-09T12:35:58.517Z,62.48
2023-01-09T12:38:24.910Z,61.63
2023-01-09T12:40:51.441Z,62.80
2023-01-09T12:43:17.859Z,62.72
2023-01-09T12:45:44.235Z,61.35
2023-01-09T12:48:10.603Z,61.04
2023-01-09T12:50:36.973Z,60.57
2023-01-09T12:53:03.327Z,59.53
2023-01-09T12:55:29.665Z,58.76
2023-01-09T12:57:56.059Z,59.77
2023-01-09T13:00:22.436Z,58.98
2023-01-09T13:02:49.532Z,59.80
2023-01-09T13:05:16.778Z,58.58
2023-01-09T13:07:43.127Z,58.57
2023-01-09T13:10:09.524Z,58.76
2023-01-09T13:12:35.887Z,58.59
2023-01-09T13:15:02.244Z,60.60
2023-01-09T13:17:28.927Z,59.43
2023-01-09T13:19:55.277Z,59.59
2023-01-09T13:22:21.708Z,64.56
2023-01-09T13:24:48.069Z,70.38
2023-01-09T13:27:14.454Z,71.50
2023-01-09T13:29:40.849Z,72.44
2023-01-09T13:32:07.192Z,71.43
2023-01-09T13:34:33.542Z,71.89
2023-01-09T13:37:00.077Z,71.42
2023-01-09T13:39:26.486Z,71.24
2023-01-09T13:41:52.815Z,72.30
2023-01-09T13:44:19.199Z,71.20
2023-01-09T13:46:45.542Z,71.96
2023-01-09T13:49:11.906Z,71.94
2023-01-09T13:51:38.292Z,69.42
2023-01-09T13:54:04.695Z,69.71
2023-01-09T13:56:31.055Z,71.99
2023-01-09T13:58:57.455Z,71.00
2023-01-09T14:01:23.847Z,70.97
2023-01-09T14:03:50.191Z,70.31
2023-01-09T14:06:16.539Z,69.31
2023-01-09T14:08:42.926Z,68.66
2023-01-09T14:11:09.322Z,69.08
2023-01-09T14:13:35.675Z,69.31
2023-01-09T14:16:02.105Z,69.59
2023-01-09T14:18:28.524Z,68.90
2023-01-09T14:20:54.921Z,68.40
2023-01-09T14:23:39.021Z,67.38
2023-01-09T14:26:07.611Z,66.76
2023-01-09T14:28:33.957Z,66.29
2023-01-09T14:31:00.348Z,66.24
2023-01-09T14:33:26.744Z,66.54
2023-01-09T14:35:53.099Z,66.62
2023-01-09T14:38:19.445Z,66.31
2023-01-09T14:40:45.793Z,64.67
2023-01-09T14:43:12.479Z,64.25
2023-01-09T14:45:38.899Z,66.60
2023-01-09T14:48:05.272Z,65.87
2023-01-09T14:50:31.643Z,65.41
2023-01-09T14:52:57.982Z,65.79
2023-01-09T14:55:24.370Z,65.92
2023-01-09T14:57:50.719Z,65.37
2023-01-09T15:00:17.110Z,64.29
2023-01-09T15:02:43.525Z,64.06
2023-01-09T15:05:09.858Z,64.02
2023-01-09T15:07:36.247Z,64.40
2023-01-09T15:10:02.657Z,62.88
2023-01-09T15:12:29.003Z,62.27
2023-01-09T15:14:55.357Z,61.26
2023-01-09T15:17:21.681Z,61.96
2023-01-09T15:19:48.059Z,62.45
2023-01-09T15:22:14.402Z,63.17
2023-01-09T15:24:40.780Z,62.28
2023-01-09T15:27:07.174Z,62.54
2023-01-09T15:29:33.517Z,62.66
2023-01-09T15:31:59.997Z,61.15
2023-01-09T15:34:26.413Z,62.13
2023-01-09T15:36:52.918Z,61.19
2023-01-09T15:39:19.343Z,60.93
2023-01-09T15:41:45.693Z,60.42
2023-01-09T15:44:12.100Z,59.03
2023-01-09T15:46:38.603Z,60.92
2023-01-09T15:49:04.944Z,61.23
2023-01-09T15:51:31.318Z,60.03
2023-01-09T15:53:57.660Z,59.01
2023-01-09T15:56:24.153Z,60.36
2023-01-09T15:58:50.618Z,61.22
2023-01-09T16:01:17.137Z,58.73
2023-01-09T16:03:43.576Z,60.51
2023-01-09T16:06:09.976Z,61.26
2023-01-09T16:08:36.379Z,61.09
2023-01-09T16:11:02.779Z,60.03
2023-01-09T16:13:29.153Z,60.82
2023-01-09T16:15:55.489Z,61.06
2023-01-09T16:18:21.835Z,59.50
2023-01-09T16:20:48.215Z,59.38
2023-01-09T16:23:14.631Z,59.43
2023-01-09T16:25:41.022Z,59.31
2023-01-09T16:28:08.533Z,58.71
2023-01-09T16:30:34.924Z,60.06
2023-01-09T16:33:01.251Z,57.19
2023-01-09T16:35:27.595Z,59.12
2023-01-09T16:37:53.935Z,58.11
2023-01-09T16:40:20.321Z,56.46
2023-01-09T16:42:46.736Z,58.47
2023-01-09T16:45:13.080Z,57.77
2023-01-09T16:47:39.420Z,57.69
2023-01-09T16:50:05.771Z,58.64
2023-01-09T16:52:32.162Z,57.87
2023-01-09T16:54:58.511Z,54.71
2023-01-09T16:57:24.846Z,58.03
2023-01-09T16:59:51.186Z,56.59
2023-01-09T17:02:17.655Z,56.84
2023-01-09T17:04:44.030Z,55.77
2023-01-09T17:07:10.401Z,55.77
2023-01-09T17:09:36.769Z,56.04
2023-01-09T17:12:03.170Z,56.44
2023-01-09T17:14:29.553Z,55.48
2023-01-09T17:16:55.964Z,56.32
2023-01-09T17:19:22.441Z,56.35
2023-01-09T17:21:48.824Z,54.87
2023-01-09T17:24:15.227Z,52.92
2023-01-09T17:26:41.577Z,54.34
2023-01-09T17:29:07.917Z,54.25
2023-01-09T17:31:34.296Z,53.86
2023-01-09T17:34:00.654Z,53.23
2023-01-09T17:36:27.044Z,53.10
2023-01-09T17:38:53.390Z,52.38
2023-01-09T17:41:19.743Z,52.99
2023-01-09T17:43:46.904Z,52.79
2023-01-09T17:46:13.329Z,53.46
2023-01-09T17:48:39.711Z,55.22
2023-01-09T17:51:06.038Z,53.70
2023-01-09T17:53:32.425Z,55.18
2023-01-09T17:55:58.807Z,55.19
2023-01-09T17:58:25.160Z,55.44
2023-01-09T18:00:51.543Z,56.64
2023-01-09T18:03:17.924Z,55.78
2023-01-09T18:05:44.284Z,55.95
2023-01-09T18:08:10.682Z,55.45
2023-01-09T18:10:37.050Z,56.06
2023-01-09T18:13:03.454Z,56.95
2023-01-09T18:15:29.846Z,56.10
2023-01-09T18:17:56.247Z,56.05
2023-01-09T18:20:22.648Z,55.53
2023-01-09T18:22:49.049Z,55.87
2023-01-09T18:25:15.415Z,55.52
2023-01-09T18:27:41.768Z,53.25
2023-01-09T18:30:08.142Z,54.55
2023-01-09T18:32:34.483Z,53.57
2023-01-09T18:35:00.839Z,53.19
2023-01-09T18:37:27.211Z,53.19
2023-01-09T18:39:53.578Z,52.71
2023-01-09T18:42:19.980Z,53.13
2023-01-09T18:44:46.332Z,52.93
2023-01-09T18:47:12.735Z,52.71
2023-01-09T18:49:39.102Z,53.65
2023-01-09T18:52:07.561Z,54.52
2023-01-09T18:54:34.096Z,54.87
2023-01-09T18:57:00.449Z,54.52
2023-01-09T18:59:26.810Z,54.57
2023-01-09T19:01:53.174Z,55.25
2023-01-09T19:04:19.614Z,55.90
2023-01-09T19:06:46.017Z,55.58
2023-01-09T19:09:12.405Z,54.29
2023-01-09T19:11:38.776Z,54.24
2023-01-09T19:14:05.139Z,55.11
2023-01-09T19:16:31.607Z,54.80
2023-01-09T19:18:58.041Z,54.81
2023-01-09T19:21:24.424Z,55.60
2023-01-09T19:23:50.795Z,55.59
2023-01-09T19:26:17.185Z,55.04
2023-01-09T19:28:43.576Z,54.83
2023-01-09T19:31:10.001Z,55.22
2023-01-09T19:33:36.432Z,55.21
2023-01-09T19:36:02.780Z,55.50
2023-01-09T19:38:29.132Z,56.45
2023-01-09T19:40:55.509Z,56.67
2023-01-09T19:43:21.864Z,55.56
2023-01-09T19:45:48.248Z,55.96
2023-01-09T19:48:14.703Z,55.98
2023-01-09T19:50:41.073Z,57.38
2023-01-09T19:53:07.423Z,56.69
2023-01-09T19:55:33.820Z,57.62
2023-01-09T19:58:00.182Z,56.30
2023-01-09T20:00:26.718Z,56.49
2023-01-09T20:02:53.059Z,56.26
2023-01-09T20:05:19.407Z,56.10
2023-01-09T20:07:45.787Z,56.44
2023-01-09T20:10:12.141Z,56.61
2023-01-09T20:12:38.533Z,56.22
2023-01-09T20:15:04.890Z,56.10
2023-01-09T20:17:31.241Z,56.00
2023-01-09T20:19:57.631Z,55.63
2023-01-09T20:22:24.051Z,55.21
2023-01-09T20:24:50.430Z,55.88
2023-01-09T20:27:16.780Z,55.51
2023-01-09T20:29:43.179Z,55.80
2023-01-09T20:32:09.560Z,56.05
2023-01-09T20:34:35.911Z,56.30
2023-01-09T20:37:02.315Z,56.01
2023-01-09T20:39:28.693Z,55.79
2023-01-09T20:41:55.055Z,55.65
2023-01-09T20:44:21.614Z,55.70
2023-01-09T20:46:48.257Z,55.78
2023-01-09T20:49:14.715Z,56.69
2023-01-09T20:51:41.073Z,56.75
2023-01-09T20:54:07.544Z,57.59
2023-01-09T20:56:33.910Z,57.47
2023-01-09T20:59:00.274Z,56.84
2023-01-09T21:01:26.808Z,57.04
2023-01-09T21:03:53.294Z,56.26
2023-01-09T21:06:19.740Z,56.67
2023-01-09T21:08:46.116Z,57.66
2023-01-09T21:11:12.586Z,56.99
2023-01-09T21:13:38.963Z,58.04
2023-01-09T21:16:06.287Z,57.45
2023-01-09T21:18:33.086Z,57.77
2023-01-09T21:20:59.476Z,57.16
2023-01-09T21:23:25.861Z,56.36
2023-01-09T21:25:52.224Z,57.68
2023-01-09T21:28:18.571Z,57.38
2023-01-09T21:30:44.913Z,57.16
2023-01-09T21:33:11.274Z,57.55
2023-01-09T21:35:37.615Z,58.05
2023-01-09T21:38:04.070Z,57.50
2023-01-09T21:40:30.504Z,56.33
2023-01-09T21:42:56.884Z,56.53
2023-01-09T21:45:23.242Z,54.34
2023-01-09T21:47:49.692Z,53.31
2023-01-09T21:50:17.421Z,52.83
2023-01-09T21:52:43.974Z,52.27
2023-01-09T21:55:10.330Z,52.35
2023-01-09T21:57:36.672Z,51.59
2023-01-09T22:00:03.062Z,52.10
2023-01-09T22:02:29.407Z,52.54
2023-01-09T22:04:55.808Z,53.09
2023-01-09T22:07:22.189Z,54.17
2023-01-09T22:09:48.569Z,55.08
2023-01-09T22:12:14.922Z,54.25
2023-01-09T22:14:41.288Z,55.08
2023-01-09T22:17:07.672Z,53.38
2023-01-09T22:19:34.026Z,53.08
2023-01-09T22:22:00.423Z,53.52
2023-01-09T22:24:26.794Z,53.31
2023-01-09T22:26:53.122Z,56.17
2023-01-09T22:29:19.478Z,55.10
2023-01-09T22:31:45.945Z,56.31
2023-01-09T22:34:12.349Z,55.29
2023-01-09T22:36:38.784Z,55.52
2023-01-09T22:39:05.162Z,55.79
2023-01-09T22:41:31.504Z,55.05
2023-01-09T22:43:57.832Z,55.61
2023-01-09T22:46:24.273Z,55.20
2023-01-09T22:48:50.638Z,55.12
2023-01-09T22:51:16.976Z,54.89
2023-01-09T22:53:43.339Z,54.68
2023-01-09T22:56:09.687Z,54.81
2023-01-09T22:58:36.047Z,54.67
2023-01-09T23:01:02.384Z,54.35
2023-01-09T23:03:28.742Z,54.75
2023-01-09T23:05:55.084Z,54.74
2023-01-09T23:08:21.431Z,54.69
2023-01-09T23:10:47.813Z,54.65
2023-01-09T23:13:14.197Z,54.62
2023-01-09T23:15:40.619Z,54.38
2023-01-09T23:18:07.029Z,55.13
2023-01-09T23:20:33.396Z,54.81
2023-01-09T23:22:59.752Z,55.20
2023-01-09T23:25:26.133Z,54.02
2023-01-09T23:27:52.519Z,54.14
2023-01-09T23:30:18.898Z,53.38
2023-01-09T23:32:45.297Z,53.97
2023-01-09T23:35:11.651Z,53.72
2023-01-09T23:37:37.996Z,54.17
2023-01-09T23:40:04.374Z,53.13
2023-01-09T23:42:30.756Z,54.92
2023-01-09T23:44:57.114Z,53.89
2023-01-09T23:47:23.468Z,54.41
2023-01-09T23:49:49.837Z,54.59
2023-01-09T23:52:16.225Z,53.87
2023-01-09T23:54:42.612Z,54.54
2023-01-09T23:57:08.985Z,55.49
2023-01-09T23:59:35.376Z,55.44
